createdAt,value
2019-04-07T00:00:29.093Z,8.80
2019-04-07T00:03:05.200Z,8.70
2019-04-07T00:05:38.185Z,8.60
2019-04-07T00:08:10.498Z,8.60
2019-04-07T00:10:42.495Z,8.60
2019-04-07T00:13:14.586Z,8.60
2019-04-07T00:15:46.884Z,8.50
2019-04-07T00:18:19.110Z,8.50
2019-04-07T00:20:50.886Z,8.50
2019-04-07T00:23:22.857Z,8.40
2019-04-07T00:25:54.494Z,8.40
2019-04-07T00:28:26.102Z,8.40
2019-04-07T00:30:57.728Z,8.30
2019-04-07T00:33:29.363Z,8.30
2019-04-07T00:36:01.099Z,8.30
2019-04-07T00:38:32.548Z,8.30
2019-04-07T00:41:04.587Z,8.20
2019-04-07T00:43:36.489Z,8.20
2019-04-07T00:46:08.791Z,8.20
2019-04-07T00:48:40.800Z,8.20
2019-04-07T00:51:12.656Z,8.10
2019-04-07T00:53:44.331Z,8.10
2019-04-07T00:56:16.939Z,8.10
2019-04-07T00:58:49.954Z,8.00
2019-04-07T02:02:02.088Z,7.30
2019-04-07T02:04:53.057Z,7.30
2019-04-07T02:07:42.225Z,7.30
2019-04-07T02:10:40.688Z,7.30
2019-04-07T02:13:29.071Z,7.30
2019-04-07T02:16:19.236Z,7.20
2019-04-07T02:19:05.059Z,7.20
2019-04-07T02:21:54.555Z,7.20
2019-04-07T02:24:43.855Z,7.10
2019-04-07T02:27:37.342Z,7.00
2019-04-07T02:30:35.247Z,7.00
2019-04-07T02:33:25.224Z,6.90
2019-04-07T02:36:22.816Z,6.90
2019-04-07T02:38:54.742Z,6.80
2019-04-07T02:41:36.144Z,6.80
2019-04-07T02:44:25.342Z,6.80
2019-04-07T02:47:13.688Z,6.80
2019-04-07T02:50:03.535Z,6.70
2019-04-07T02:52:49.146Z,6.70
2019-04-07T02:55:42.429Z,6.70
2019-04-07T02:58:47.826Z,6.70
2019-04-07T03:01:43.927Z,6.70
2019-04-07T03:04:46.027Z,6.70
2019-04-07T03:07:32.369Z,6.60
2019-04-07T03:10:21.566Z,6.60
2019-04-07T03:13:18.386Z,6.60
2019-04-07T03:16:02.102Z,6.50
2019-04-07T03:18:40.072Z,6.50
2019-04-07T03:21:29.425Z,6.50
2019-04-07T03:24:11.168Z,6.50
2019-04-07T03:27:20.107Z,6.40
2019-04-07T03:30:14.491Z,6.40
2019-04-07T03:33:06.038Z,6.40
2019-04-07T03:35:53.138Z,6.40
2019-04-07T03:38:41.611Z,6.40
2019-04-07T03:41:38.502Z,6.40
2019-04-07T03:44:17.211Z,6.40
2019-04-07T03:47:14.483Z,6.30
2019-04-07T03:49:59.721Z,6.30
2019-04-07T03:52:49.029Z,6.30
2019-04-07T03:55:40.906Z,6.30
2019-04-07T03:58:40.211Z,6.20
2019-04-07T04:01:48.162Z,6.20
2019-04-07T04:04:47.422Z,6.30
2019-04-07T04:07:34.357Z,6.30
2019-04-07T04:10:17.322Z,6.30
2019-04-07T04:13:14.873Z,6.30
2019-04-07T04:16:20.129Z,6.30
2019-04-07T04:18:52.579Z,6.20
2019-04-07T04:21:24.324Z,6.20
2019-04-07T04:23:56.907Z,6.20
2019-04-07T04:26:29.603Z,6.20
2019-04-07T04:29:02.430Z,6.20
2019-04-07T04:31:33.781Z,6.20
2019-04-07T04:34:05.523Z,6.30
2019-04-07T04:36:38.046Z,6.20
2019-04-07T04:39:10.067Z,6.20
2019-04-07T04:41:42.492Z,6.20
2019-04-07T04:44:14.506Z,6.10
2019-04-07T04:46:58.396Z,6.10
2019-04-07T04:49:30.761Z,6.10
2019-04-07T04:52:03.074Z,6.10
2019-04-07T04:54:35.369Z,6.00
2019-04-07T04:57:09.129Z,6.00
2019-04-07T04:59:40.350Z,5.90
2019-04-07T05:02:12.210Z,5.90
2019-04-07T05:04:44.657Z,5.90
2019-04-07T05:07:16.804Z,5.90
2019-04-07T05:09:52.866Z,5.80
2019-04-07T05:12:21.965Z,5.80
2019-04-07T05:14:53.642Z,5.80
2019-04-07T05:17:26.029Z,5.80
2019-04-07T05:19:57.686Z,5.90
2019-04-07T05:22:30.875Z,6.00
2019-04-07T05:25:02.697Z,6.20
2019-04-07T05:27:34.929Z,6.20
2019-04-07T05:30:06.652Z,6.40
2019-04-07T05:32:38.095Z,6.50
2019-04-07T05:35:09.157Z,6.60
2019-04-07T05:37:40.618Z,6.70
2019-04-07T05:40:13.319Z,6.80
2019-04-07T05:42:45.468Z,6.80
2019-04-07T05:45:17.414Z,6.70
2019-04-07T05:47:50.772Z,6.60
2019-04-07T05:50:22.310Z,6.60
2019-04-07T05:52:53.985Z,6.60
2019-04-07T05:55:25.774Z,6.50
2019-04-07T05:57:58.846Z,6.50
2019-04-07T06:00:46.982Z,6.50
2019-04-07T06:03:18.737Z,6.50
2019-04-07T06:05:51.726Z,6.60
2019-04-07T06:08:32.163Z,6.70
2019-04-07T06:11:00.033Z,6.80
2019-04-07T06:13:29.132Z,7.00
2019-04-07T06:16:00.023Z,7.20
2019-04-07T06:18:33.365Z,7.30
2019-04-07T06:21:04.828Z,7.50
2019-04-07T06:23:37.557Z,7.60
2019-04-07T06:26:11.654Z,7.60
2019-04-07T06:28:48.463Z,7.80
2019-04-07T06:31:17.363Z,7.90
2019-04-07T06:33:49.833Z,8.00
2019-04-07T06:36:22.218Z,8.00
2019-04-07T06:38:53.750Z,8.20
2019-04-07T06:41:32.321Z,8.40
2019-04-07T06:44:11.406Z,8.50
2019-04-07T06:46:47.021Z,8.70
2019-04-07T06:49:37.074Z,8.90
2019-04-07T06:52:35.469Z,9.00
2019-04-07T06:55:33.031Z,9.20
2019-04-07T06:58:32.209Z,9.40
2019-04-07T07:01:24.530Z,9.60
2019-04-07T07:04:16.624Z,9.90
2019-04-07T07:07:18.112Z,10.00
2019-04-07T07:10:30.340Z,10.30
2019-04-07T07:13:26.510Z,10.60
2019-04-07T07:16:09.604Z,10.80
2019-04-07T07:18:48.689Z,11.10
2019-04-07T07:21:27.499Z,11.30
2019-04-07T07:23:58.969Z,11.60
2019-04-07T07:26:34.587Z,11.80
2019-04-07T07:29:06.293Z,12.00
2019-04-07T07:31:37.996Z,12.20
2019-04-07T07:34:10.830Z,12.40
2019-04-07T07:36:41.921Z,12.70
2019-04-07T07:39:14.878Z,12.90
2019-04-07T07:41:45.745Z,13.00
2019-04-07T07:44:18.834Z,13.20
2019-04-07T07:46:51.800Z,13.40
2019-04-07T07:49:23.005Z,13.60
2019-04-07T07:51:54.260Z,13.70
2019-04-07T07:54:28.241Z,13.90
2019-04-07T07:56:59.051Z,14.10
2019-04-07T07:59:33.557Z,14.40
2019-04-07T08:02:03.766Z,14.60
2019-04-07T08:04:35.577Z,14.80
2019-04-07T08:07:06.741Z,14.80
2019-04-07T08:09:39.245Z,14.90
2019-04-07T08:12:11.590Z,15.00
2019-04-07T08:14:43.745Z,15.20
2019-04-07T08:17:14.927Z,15.30
2019-04-07T08:19:46.703Z,15.50
2019-04-07T08:22:27.577Z,15.80
2019-04-07T08:24:52.001Z,15.90
2019-04-07T08:27:23.952Z,16.20
2019-04-07T08:29:57.205Z,16.40
2019-04-07T08:32:32.002Z,16.40
2019-04-07T08:35:05.285Z,16.70
2019-04-07T08:37:36.463Z,16.90
2019-04-07T08:40:09.141Z,16.90
2019-04-07T08:42:41.180Z,16.90
2019-04-07T08:45:13.183Z,16.80
2019-04-07T08:47:47.364Z,16.80
2019-04-07T08:50:20.920Z,17.00
2019-04-07T08:52:53.223Z,17.40
2019-04-07T08:55:25.666Z,17.50
2019-04-07T08:58:00.142Z,17.70
2019-04-07T09:00:31.581Z,17.40
2019-04-07T09:03:10.544Z,17.60
2019-04-07T09:05:36.538Z,17.60
2019-04-07T09:08:08.873Z,17.90
2019-04-07T09:10:54.959Z,18.00
2019-04-07T09:13:31.196Z,18.40
2019-04-07T09:16:15.098Z,18.20
2019-04-07T09:19:11.302Z,18.40
2019-04-07T09:22:06.288Z,18.80
2019-04-07T09:24:50.827Z,18.70
2019-04-07T09:27:29.168Z,18.80
2019-04-07T09:30:19.608Z,18.70
2019-04-07T09:33:24.872Z,18.90
2019-04-07T09:36:11.162Z,19.20
2019-04-07T09:39:09.354Z,19.10
2019-04-07T09:42:11.777Z,19.40
2019-04-07T09:45:00.650Z,19.50
2019-04-07T09:47:49.365Z,19.50
2019-04-07T09:50:34.008Z,19.50
2019-04-07T09:53:43.828Z,19.70
2019-04-07T09:56:41.773Z,19.70
2019-04-07T09:59:30.909Z,19.70
2019-04-07T10:02:34.135Z,20.10
2019-04-07T10:05:21.817Z,20.20
2019-04-07T10:08:31.635Z,19.90
2019-04-07T10:11:16.129Z,20.20
2019-04-07T10:14:27.369Z,20.50
2019-04-07T10:17:19.189Z,20.40
2019-04-07T10:20:16.007Z,20.70
2019-04-07T10:23:09.404Z,20.90
2019-04-07T10:26:15.667Z,21.30
2019-04-07T10:28:57.586Z,21.30
2019-04-07T10:31:42.815Z,21.70
2019-04-07T10:34:38.685Z,21.90
2019-04-07T10:37:36.232Z,22.00
2019-04-07T10:40:21.951Z,22.00
2019-04-07T10:43:09.573Z,21.60
2019-04-07T10:45:59.025Z,21.70
2019-04-07T10:48:54.729Z,22.00
2019-04-07T10:51:46.006Z,22.30
2019-04-07T10:54:42.358Z,22.10
2019-04-07T10:57:41.438Z,22.50
2019-04-07T11:00:22.277Z,22.80
2019-04-07T11:03:02.044Z,22.60
2019-04-07T11:05:50.434Z,22.40
2019-04-07T11:08:46.617Z,22.30
2019-04-07T11:11:35.917Z,22.50
2019-04-07T11:14:26.835Z,22.50
2019-04-07T11:17:11.502Z,22.20
2019-04-07T11:20:02.884Z,21.80
2019-04-07T11:23:08.484Z,22.20
2019-04-07T11:26:05.393Z,22.10
2019-04-07T11:28:53.696Z,22.30
2019-04-07T11:31:42.901Z,22.60
2019-04-07T11:34:23.900Z,23.30
2019-04-07T11:37:20.016Z,22.90
2019-04-07T11:40:08.285Z,23.50
2019-04-07T11:42:50.757Z,24.10
2019-04-07T11:45:58.448Z,24.00
2019-04-07T11:48:41.630Z,24.50
2019-04-07T11:51:32.330Z,24.60
2019-04-07T11:54:14.347Z,24.60
2019-04-07T11:56:59.350Z,25.00
2019-04-07T11:59:47.246Z,25.40
2019-04-07T12:02:33.780Z,25.40
2019-04-07T12:05:28.777Z,25.30
2019-04-07T12:08:33.503Z,25.10
2019-04-07T12:11:28.826Z,25.30
2019-04-07T12:14:21.573Z,25.20
2019-04-07T12:17:12.459Z,25.30
2019-04-07T12:20:01.442Z,25.80
2019-04-07T12:22:51.010Z,25.50
2019-04-07T12:26:02.149Z,25.30
2019-04-07T12:28:54.642Z,25.30
2019-04-07T12:31:44.233Z,25.30
2019-04-07T12:34:27.634Z,25.40
2019-04-07T12:37:18.862Z,25.10
2019-04-07T12:40:10.927Z,24.70
2019-04-07T12:42:59.130Z,24.90
2019-04-07T12:45:37.233Z,24.40
2019-04-07T12:48:30.016Z,24.30
2019-04-07T12:51:23.969Z,24.40
2019-04-07T12:54:01.815Z,24.30
2019-04-07T12:57:08.449Z,24.60
2019-04-07T12:59:51.662Z,24.20
2019-04-07T13:02:38.196Z,24.10
2019-04-07T13:05:34.497Z,24.80
2019-04-07T13:08:25.762Z,24.50
2019-04-07T13:11:13.235Z,24.60
2019-04-07T13:14:08.711Z,25.10
2019-04-07T13:17:02.391Z,25.40
2019-04-07T13:19:58.796Z,24.90
2019-04-07T13:22:49.603Z,24.60
2019-04-07T13:25:32.355Z,24.40
2019-04-07T13:28:12.772Z,24.50
2019-04-07T13:31:18.136Z,25.00
2019-04-07T13:34:17.999Z,24.80
2019-04-07T13:37:12.467Z,24.40
2019-04-07T13:40:10.046Z,24.30
2019-04-07T13:42:49.122Z,24.50
2019-04-07T13:45:42.045Z,25.00
2019-04-07T13:48:32.282Z,24.80
2019-04-07T13:51:18.214Z,25.10
2019-04-07T13:54:07.974Z,25.10
2019-04-07T13:57:02.312Z,25.20
2019-04-07T13:59:53.132Z,25.50
2019-04-07T14:02:32.550Z,25.50
2019-04-07T14:05:22.283Z,25.00
2019-04-07T14:08:05.939Z,24.50
2019-04-07T14:10:45.011Z,24.80
2019-04-07T14:13:40.745Z,25.00
2019-04-07T14:16:28.289Z,25.40
2019-04-07T14:19:17.861Z,25.70
2019-04-07T14:22:05.466Z,26.10
2019-04-07T14:24:44.793Z,26.20
2019-04-07T14:27:38.429Z,25.20
2019-04-07T14:30:23.389Z,25.10
2019-04-07T14:33:03.446Z,25.20
2019-04-07T14:35:41.015Z,25.20
2019-04-07T14:38:28.998Z,25.40
2019-04-07T14:41:12.569Z,25.10
2019-04-07T14:44:07.110Z,25.10
2019-04-07T14:46:57.580Z,25.20
2019-04-07T14:49:57.361Z,25.60
2019-04-07T14:52:53.646Z,24.60
2019-04-07T14:55:45.398Z,24.40
2019-04-07T14:58:35.828Z,24.60
2019-04-07T15:01:25.726Z,24.50
2019-04-07T15:03:57.030Z,23.90
2019-04-07T15:06:33.097Z,24.20
2019-04-07T15:09:37.079Z,24.30
2019-04-07T15:12:22.755Z,24.50
2019-04-07T15:14:50.124Z,24.80
2019-04-07T15:17:22.043Z,24.80
2019-04-07T15:19:53.591Z,24.40
2019-04-07T15:22:28.617Z,24.10
2019-04-07T15:24:59.183Z,24.10
2019-04-07T15:27:33.818Z,24.00
2019-04-07T15:30:05.316Z,24.00
2019-04-07T15:32:38.378Z,23.70
2019-04-07T15:35:13.222Z,23.40
2019-04-07T15:37:44.575Z,23.30
2019-04-07T15:40:16.038Z,23.20
2019-04-07T15:42:50.591Z,22.90
2019-04-07T15:45:21.676Z,22.70
2019-04-07T15:47:54.012Z,22.60
2019-04-07T15:50:29.248Z,22.50
2019-04-07T15:52:59.510Z,22.40
2019-04-07T15:55:43.186Z,22.20
2019-04-07T15:58:04.238Z,22.10
2019-04-07T16:00:35.822Z,22.10
2019-04-07T16:03:07.389Z,22.10
2019-04-07T16:05:43.443Z,22.10
2019-04-07T16:08:13.581Z,22.10
2019-04-07T16:10:45.446Z,21.90
2019-04-07T16:13:19.642Z,21.80
2019-04-07T16:15:54.619Z,21.30
2019-04-07T16:18:25.261Z,21.20
2019-04-07T16:20:56.386Z,21.10
2019-04-07T16:23:29.450Z,21.20
2019-04-07T16:26:03.084Z,21.00
2019-04-07T16:28:35.640Z,21.10
2019-04-07T16:31:07.345Z,21.00
2019-04-07T16:33:40.927Z,21.10
2019-04-07T16:36:13.149Z,21.00
2019-04-07T16:38:44.662Z,21.10
2019-04-07T16:41:16.757Z,21.10
2019-04-07T16:43:49.412Z,21.10
2019-04-07T16:46:24.359Z,21.30
2019-04-07T16:48:55.620Z,21.30
2019-04-07T16:51:30.037Z,21.40
2019-04-07T16:54:01.523Z,21.30
2019-04-07T16:56:34.505Z,21.40
2019-04-07T16:59:08.451Z,21.50
2019-04-07T17:01:39.944Z,21.40
2019-04-07T17:04:12.646Z,21.30
2019-04-07T17:06:44.933Z,21.20
2019-04-07T17:09:24.110Z,21.10
2019-04-07T17:11:54.704Z,21.00
2019-04-07T17:14:31.922Z,20.80
2019-04-07T17:17:01.073Z,20.70
2019-04-07T17:19:35.657Z,20.60
2019-04-07T17:22:07.211Z,20.50
2019-04-07T17:24:39.943Z,20.40
2019-04-07T17:27:13.020Z,20.30
2019-04-07T17:29:44.126Z,20.20
2019-04-07T17:32:15.613Z,20.00
2019-04-07T17:34:47.648Z,19.80
2019-04-07T17:37:21.757Z,19.70
2019-04-07T17:40:15.758Z,19.50
2019-04-07T17:42:50.778Z,19.40
2019-04-07T17:45:43.784Z,19.10
2019-04-07T17:48:50.380Z,18.90
2019-04-07T17:51:36.347Z,18.70
2019-04-07T17:54:28.869Z,18.50
2019-04-07T17:57:11.948Z,18.30
2019-04-07T18:00:06.427Z,18.20
2019-04-07T18:02:54.621Z,17.90
2019-04-07T18:06:00.058Z,17.70
2019-04-07T18:08:45.318Z,17.60
2019-04-07T18:11:34.029Z,17.40
2019-04-07T18:14:36.271Z,17.30
2019-04-07T18:17:30.071Z,17.20
2019-04-07T18:20:26.029Z,17.20
2019-04-07T18:23:30.056Z,17.20
2019-04-07T18:26:23.780Z,17.10
2019-04-07T18:29:08.044Z,17.00
2019-04-07T18:32:00.036Z,17.00
2019-04-07T18:34:43.333Z,16.90
2019-04-07T18:37:24.025Z,16.80
2019-04-07T18:40:14.385Z,16.90
2019-04-07T18:43:01.008Z,16.80
2019-04-07T18:45:45.919Z,16.70
2019-04-07T18:48:28.849Z,16.70
2019-04-07T18:51:12.616Z,16.60
2019-04-07T18:53:51.970Z,16.50
2019-04-07T18:56:34.552Z,16.30
2019-04-07T18:59:28.061Z,16.10
2019-04-07T19:02:30.048Z,16.00
2019-04-07T19:05:15.245Z,16.00
2019-04-07T19:08:03.878Z,16.00
2019-04-07T19:11:01.516Z,16.00
2019-04-07T19:13:47.982Z,16.00
2019-04-07T19:16:42.382Z,16.00
2019-04-07T19:19:33.380Z,15.90
2019-04-07T19:22:22.764Z,15.90
2019-04-07T19:25:15.630Z,15.80
2019-04-07T19:28:07.778Z,15.80
2019-04-07T19:30:48.618Z,15.80
2019-04-07T19:33:58.660Z,15.70
2019-04-07T19:36:54.244Z,15.60
2019-04-07T19:39:53.549Z,15.60
2019-04-07T19:42:48.190Z,15.60
2019-04-07T19:45:37.735Z,15.60
2019-04-07T19:48:33.062Z,15.60
2019-04-07T19:51:22.493Z,15.60
2019-04-07T19:54:16.105Z,15.50
2019-04-07T19:57:17.618Z,15.50
2019-04-07T19:59:57.031Z,15.40
2019-04-07T20:02:47.370Z,15.40
2019-04-07T20:05:37.368Z,15.40
2019-04-07T20:08:45.998Z,15.40
2019-04-07T20:11:35.749Z,15.40
2019-04-07T20:14:25.021Z,15.30
2019-04-07T20:17:17.389Z,15.20
2019-04-07T20:20:12.660Z,15.20
2019-04-07T20:23:18.185Z,15.20
2019-04-07T20:26:22.538Z,15.20
2019-04-07T20:29:23.655Z,15.10
2019-04-07T20:32:21.368Z,15.10
2019-04-07T20:35:20.832Z,15.00
2019-04-07T20:38:25.526Z,15.00
2019-04-07T20:41:26.973Z,14.90
2019-04-07T20:44:21.047Z,14.90
2019-04-07T20:47:31.746Z,14.90
2019-04-07T20:50:33.502Z,14.90
2019-04-07T20:53:28.299Z,14.80
2019-04-07T20:56:20.733Z,14.80
2019-04-07T20:59:08.495Z,14.70
2019-04-07T21:02:05.479Z,14.50
2019-04-07T21:04:58.197Z,14.50
2019-04-07T21:07:40.913Z,14.40
2019-04-07T21:10:37.917Z,14.40
2019-04-07T21:13:19.304Z,14.40
2019-04-07T21:16:02.057Z,14.30
2019-04-07T21:18:44.643Z,14.30
2019-04-07T21:21:35.718Z,14.30
2019-04-07T21:24:30.288Z,14.30
2019-04-07T21:27:17.383Z,14.20
2019-04-07T21:30:06.862Z,14.20
2019-04-07T21:32:53.623Z,14.00
2019-04-07T21:35:45.933Z,14.00
2019-04-07T21:38:43.294Z,14.00
2019-04-07T21:41:46.430Z,14.00
2019-04-07T21:44:38.492Z,14.00
2019-04-07T21:47:33.070Z,14.00
2019-04-07T21:50:13.932Z,14.00
2019-04-07T21:53:03.300Z,13.90
2019-04-07T21:55:44.624Z,13.90
2019-04-07T21:58:42.017Z,13.90
2019-04-07T22:01:28.258Z,14.00
2019-04-07T22:04:08.454Z,13.90
2019-04-07T22:07:02.102Z,13.90
2019-04-07T22:09:50.095Z,13.90
2019-04-07T22:12:20.615Z,13.90
2019-04-07T22:14:52.769Z,13.90
2019-04-07T22:17:24.702Z,13.90
2019-04-07T22:19:56.482Z,13.90
2019-04-07T22:22:29.004Z,13.90
2019-04-07T22:25:06.093Z,13.80
2019-04-07T22:27:34.698Z,13.80
2019-04-07T22:30:11.191Z,13.80
2019-04-07T22:32:42.729Z,13.80
2019-04-07T22:35:15.101Z,13.80
2019-04-07T22:37:49.696Z,13.70
2019-04-07T22:40:21.295Z,13.70
2019-04-07T22:42:54.156Z,13.70
2019-04-07T22:45:28.897Z,13.70
2019-04-07T22:47:59.706Z,13.60
2019-04-07T22:50:35.356Z,13.60
2019-04-07T22:53:03.796Z,13.50
2019-04-07T22:55:36.064Z,13.40
2019-04-07T22:58:07.511Z,13.40
2019-04-07T23:00:40.345Z,13.40
2019-04-07T23:03:12.287Z,13.30
2019-04-07T23:05:43.432Z,13.30
2019-04-07T23:08:14.875Z,13.30
2019-04-07T23:10:46.265Z,13.20
2019-04-07T23:13:19.428Z,13.30
2019-04-07T23:15:52.301Z,13.30
2019-04-07T23:18:24.379Z,13.30
2019-04-07T23:20:55.625Z,13.10
2019-04-07T23:23:28.088Z,13.10
2019-04-07T23:26:00.487Z,13.00
2019-04-07T23:28:32.648Z,12.90
2019-04-07T23:31:04.264Z,12.90
2019-04-07T23:33:36.121Z,12.90
2019-04-07T23:36:09.418Z,12.90
2019-04-07T23:38:41.470Z,12.90
2019-04-07T23:41:13.651Z,12.80
2019-04-07T23:43:45.986Z,12.70
2019-04-07T23:46:22.889Z,12.50
2019-04-07T23:48:51.826Z,12.30
2019-04-07T23:51:23.292Z,12.20
2019-04-07T23:54:12.655Z,12.10
2019-04-07T23:56:44.931Z,12.10
2019-04-07T23:59:16.769Z,12.00
